createdAt,value
2022-08-03T00:01:29.214Z,17.65
2022-08-03T00:03:55.631Z,17.64
2022-08-03T00:06:21.955Z,17.63
2022-08-03T00:08:48.264Z,17.55
2022-08-03T00:11:14.558Z,17.47
2022-08-03T00:13:40.888Z,17.40
2022-08-03T00:16:07.301Z,17.37
2022-08-03T00:18:33.600Z,17.33
2022-08-03T00:21:00.005Z,17.27
2022-08-03T00:23:28.408Z,17.21
2022-08-03T00:25:58.202Z,17.16
2022-08-03T00:28:24.530Z,17.14
2022-08-03T00:30:53.620Z,17.09
2022-08-03T00:33:20.342Z,17.07
2022-08-03T00:35:50.946Z,17.05
2022-08-03T00:38:17.827Z,17.00
2022-08-03T00:40:44.124Z,16.93
2022-08-03T00:43:11.459Z,16.84
2022-08-03T00:45:39.042Z,16.75
2022-08-03T00:48:06.099Z,16.75
2022-08-03T00:50:47.575Z,16.71
2022-08-03T00:53:18.456Z,16.68
2022-08-03T00:55:45.033Z,16.68
2022-08-03T00:58:11.847Z,16.66
2022-08-03T01:00:39.259Z,16.61
2022-08-03T01:03:06.127Z,16.53
2022-08-03T01:05:38.338Z,16.46
2022-08-03T01:08:27.788Z,16.43
2022-08-03T01:11:00.391Z,16.37
2022-08-03T01:14:03.431Z,16.32
2022-08-03T01:16:42.109Z,16.26
2022-08-03T01:19:29.837Z,16.23
2022-08-03T01:22:05.191Z,16.19
2022-08-03T01:24:34.583Z,16.15
2022-08-03T01:27:08.959Z,16.13
2022-08-03T01:29:35.231Z,16.12
2022-08-03T01:33:00.900Z,16.10
2022-08-03T01:35:00.771Z,16.07
2022-08-03T01:37:31.861Z,16.03
2022-08-03T01:39:59.706Z,15.97
2022-08-03T01:42:26.520Z,15.93
2022-08-03T01:44:53.147Z,15.90
2022-08-03T01:47:20.630Z,15.86
2022-08-03T01:49:48.058Z,15.82
2022-08-03T01:52:17.297Z,15.79
2022-08-03T01:54:45.337Z,15.79
2022-08-03T01:57:12.080Z,15.79
2022-08-03T01:59:39.214Z,15.83
2022-08-03T02:02:29.143Z,15.84
2022-08-03T02:04:53.992Z,15.87
2022-08-03T02:07:20.698Z,15.90
2022-08-03T02:09:49.493Z,15.92
2022-08-03T02:12:16.081Z,15.92
2022-08-03T02:14:44.362Z,15.89
2022-08-03T02:17:12.373Z,15.84
2022-08-03T02:19:39.287Z,15.78
2022-08-03T02:22:05.773Z,15.72
2022-08-03T02:24:32.148Z,15.68
2022-08-03T02:26:59.828Z,15.65
2022-08-03T02:29:38.806Z,15.61
2022-08-03T02:32:08.968Z,15.57
2022-08-03T02:34:36.205Z,15.56
2022-08-03T02:37:04.469Z,15.56
2022-08-03T02:39:33.252Z,15.59
2022-08-03T02:42:03.390Z,15.57
2022-08-03T02:44:34.729Z,15.53
2022-08-03T02:47:03.373Z,15.54
2022-08-03T02:49:41.137Z,15.52
2022-08-03T02:52:17.714Z,15.52
2022-08-03T02:54:44.439Z,15.54
2022-08-03T02:57:11.302Z,15.54
2022-08-03T02:59:39.373Z,15.53
2022-08-03T03:02:05.997Z,15.54
2022-08-03T03:04:33.278Z,15.54
2022-08-03T03:07:00.211Z,15.52
2022-08-03T03:09:29.164Z,15.54
2022-08-03T03:12:08.325Z,15.51
2022-08-03T03:14:36.290Z,15.49
2022-08-03T03:17:03.477Z,15.44
2022-08-03T03:19:32.424Z,15.41
2022-08-03T03:22:00.276Z,15.40
2022-08-03T03:24:27.690Z,15.36
2022-08-03T03:26:54.386Z,15.38
2022-08-03T03:29:21.207Z,15.36
2022-08-03T03:31:48.031Z,15.37
2022-08-03T03:34:14.765Z,15.35
2022-08-03T03:36:41.302Z,15.33
2022-08-03T03:39:15.427Z,15.30
2022-08-03T03:41:42.613Z,15.32
2022-08-03T03:44:08.918Z,15.32
2022-08-03T03:46:35.328Z,15.31
2022-08-03T03:49:01.734Z,15.33
2022-08-03T03:51:28.159Z,15.33
2022-08-03T03:53:58.841Z,15.33
2022-08-03T03:56:25.572Z,15.31
2022-08-03T03:58:52.030Z,15.31
2022-08-03T04:01:18.795Z,15.33
2022-08-03T04:03:45.196Z,15.32
2022-08-03T04:06:30.728Z,15.35
2022-08-03T04:09:20.194Z,15.35
2022-08-03T04:11:51.870Z,15.36
2022-08-03T04:14:37.457Z,15.39
2022-08-03T04:17:05.498Z,15.44
2022-08-03T04:19:39.411Z,15.48
2022-08-03T04:22:14.004Z,15.54
2022-08-03T04:24:43.230Z,15.57
2022-08-03T04:27:11.441Z,15.62
2022-08-03T04:29:48.076Z,15.66
2022-08-03T04:32:15.295Z,15.74
2022-08-03T04:34:41.867Z,15.81
2022-08-03T04:37:13.747Z,15.90
2022-08-03T04:39:42.041Z,16.02
2022-08-03T04:42:10.193Z,16.12
2022-08-03T04:44:37.840Z,16.27
2022-08-03T04:47:04.201Z,16.44
2022-08-03T04:49:31.242Z,16.60
2022-08-03T04:51:57.928Z,16.71
2022-08-03T04:54:24.349Z,16.88
2022-08-03T04:56:50.722Z,17.10
2022-08-03T04:59:17.804Z,17.35
2022-08-03T05:01:44.245Z,17.57
2022-08-03T05:04:10.664Z,17.78
2022-08-03T05:06:37.073Z,18.08
2022-08-03T05:09:14.277Z,18.28
2022-08-03T05:11:40.903Z,18.47
2022-08-03T05:14:07.245Z,18.61
2022-08-03T05:16:33.651Z,18.70
2022-08-03T05:18:59.977Z,18.81
2022-08-03T05:21:26.450Z,18.93
2022-08-03T05:24:12.742Z,19.05
2022-08-03T05:26:39.072Z,19.16
2022-08-03T05:29:05.395Z,19.24
2022-08-03T05:31:31.706Z,19.25
2022-08-03T05:33:58.020Z,19.26
2022-08-03T05:36:24.382Z,19.33
2022-08-03T05:38:50.705Z,19.44
2022-08-03T05:41:20.507Z,19.59
2022-08-03T05:43:50.848Z,19.67
2022-08-03T05:46:17.184Z,19.79
2022-08-03T05:48:43.760Z,19.94
2022-08-03T05:51:11.747Z,20.07
2022-08-03T05:53:38.822Z,20.19
2022-08-03T05:56:14.481Z,20.33
2022-08-03T05:58:43.391Z,20.48
2022-08-03T06:01:09.759Z,20.69
2022-08-03T06:03:36.087Z,20.89
2022-08-03T06:06:02.403Z,21.09
2022-08-03T06:08:28.723Z,21.27
2022-08-03T06:10:55.058Z,21.42
2022-08-03T06:13:21.962Z,21.55
2022-08-03T06:15:48.316Z,21.68
2022-08-03T06:18:14.670Z,21.89
2022-08-03T06:20:40.989Z,22.05
2022-08-03T06:23:07.919Z,22.15
2022-08-03T06:25:42.734Z,22.26
2022-08-03T06:28:15.013Z,22.42
2022-08-03T06:30:50.236Z,22.58
2022-08-03T06:33:16.696Z,22.71
2022-08-03T06:35:43.036Z,22.83
2022-08-03T06:38:12.916Z,22.88
2022-08-03T06:40:40.076Z,22.96
2022-08-03T06:43:09.540Z,23.07
2022-08-03T06:45:38.921Z,23.18
2022-08-03T06:48:06.254Z,23.23
2022-08-03T06:50:33.174Z,23.31
2022-08-03T06:53:00.381Z,23.32
2022-08-03T06:55:26.903Z,23.34
2022-08-03T06:57:53.365Z,23.46
2022-08-03T07:00:20.313Z,23.60
2022-08-03T07:02:46.775Z,23.78
2022-08-03T07:05:13.703Z,23.85
2022-08-03T07:07:40.481Z,24.00
2022-08-03T07:10:07.477Z,24.09
2022-08-03T07:12:34.118Z,24.25
2022-08-03T07:15:03.102Z,24.43
2022-08-03T07:17:30.902Z,24.52
2022-08-03T07:19:57.786Z,24.66
2022-08-03T07:22:24.143Z,24.66
2022-08-03T07:24:50.465Z,24.69
2022-08-03T07:27:16.836Z,24.77
2022-08-03T07:29:43.157Z,24.86
2022-08-03T07:32:09.618Z,24.98
2022-08-03T07:34:35.990Z,25.09
2022-08-03T07:37:02.295Z,25.17
2022-08-03T07:39:28.609Z,25.25
2022-08-03T07:41:54.996Z,25.37
2022-08-03T07:44:21.387Z,25.52
2022-08-03T07:46:47.798Z,25.61
2022-08-03T07:49:14.182Z,25.67
2022-08-03T07:51:40.764Z,25.80
2022-08-03T07:54:07.713Z,25.93
2022-08-03T07:56:34.051Z,25.96
2022-08-03T07:59:00.402Z,25.99
2022-08-03T08:01:26.784Z,26.01
2022-08-03T08:03:53.819Z,26.14
2022-08-03T08:06:20.631Z,26.27
2022-08-03T08:08:47.019Z,26.41
2022-08-03T08:11:13.385Z,26.48
2022-08-03T08:13:39.716Z,26.50
2022-08-03T08:16:06.366Z,26.40
2022-08-03T08:18:32.821Z,26.42
2022-08-03T08:20:59.243Z,26.48
2022-08-03T08:23:42.558Z,26.68
2022-08-03T08:26:10.797Z,26.65
2022-08-03T08:28:37.139Z,26.57
2022-08-03T08:31:03.561Z,26.56
2022-08-03T08:36:16.372Z,26.58
2022-08-03T08:38:44.520Z,26.68
2022-08-03T08:41:11.310Z,26.70
2022-08-03T08:43:37.783Z,26.85
2022-08-03T08:46:05.496Z,26.82
2022-08-03T08:48:32.048Z,26.83
2022-08-03T08:50:59.570Z,26.88
2022-08-03T08:53:27.670Z,26.81
2022-08-03T08:55:58.268Z,27.04
2022-08-03T08:58:28.553Z,27.14
2022-08-03T09:00:54.918Z,27.13
2022-08-03T09:03:22.648Z,27.06
2022-08-03T09:05:56.962Z,27.01
2022-08-03T09:08:23.360Z,27.02
2022-08-03T09:10:49.682Z,27.00
2022-08-03T09:13:16.145Z,27.09
2022-08-03T09:15:42.461Z,27.28
2022-08-03T09:18:33.375Z,27.41
2022-08-03T09:21:31.052Z,27.44
2022-08-03T09:24:02.845Z,27.56
2022-08-03T09:26:31.341Z,27.54
2022-08-03T09:29:08.179Z,27.51
2022-08-03T09:31:43.765Z,27.50
2022-08-03T09:34:14.894Z,27.68
2022-08-03T09:36:42.946Z,27.71
2022-08-03T09:39:13.684Z,27.85
2022-08-03T09:41:40.907Z,27.96
2022-08-03T09:44:08.336Z,28.02
2022-08-03T09:46:53.414Z,28.09
2022-08-03T09:49:19.932Z,28.19
2022-08-03T09:52:37.929Z,28.10
2022-08-03T09:54:34.245Z,28.06
2022-08-03T09:57:00.863Z,28.21
2022-08-03T09:59:28.810Z,28.28
2022-08-03T10:01:56.002Z,28.30
2022-08-03T10:04:22.533Z,28.24
2022-08-03T10:07:09.372Z,28.09
2022-08-03T10:09:36.546Z,28.06
2022-08-03T10:12:12.632Z,28.13
2022-08-03T10:14:39.619Z,28.18
2022-08-03T10:17:06.030Z,28.27
2022-08-03T10:19:32.809Z,28.46
2022-08-03T10:22:02.566Z,28.52
2022-08-03T10:24:30.147Z,28.55
2022-08-03T10:27:01.197Z,28.65
2022-08-03T10:29:28.473Z,28.78
2022-08-03T10:31:58.626Z,28.96
2022-08-03T10:34:31.296Z,28.97
2022-08-03T10:37:00.136Z,29.09
2022-08-03T10:39:29.590Z,29.04
2022-08-03T10:41:58.689Z,29.20
2022-08-03T10:44:29.993Z,29.42
2022-08-03T10:46:56.675Z,29.29
2022-08-03T10:49:33.768Z,29.35
2022-08-03T10:52:02.693Z,29.43
2022-08-03T10:55:07.503Z,29.62
2022-08-03T10:57:42.477Z,29.80
2022-08-03T11:00:10.080Z,29.74
2022-08-03T11:02:55.332Z,29.78
2022-08-03T11:05:25.627Z,30.25
2022-08-03T11:08:11.867Z,31.22
2022-08-03T11:10:38.420Z,32.01
2022-08-03T11:13:07.964Z,32.68
2022-08-03T11:15:35.823Z,32.76
2022-08-03T11:18:08.303Z,33.50
2022-08-03T11:20:51.451Z,33.93
2022-08-03T11:23:19.130Z,34.33
2022-08-03T11:26:08.510Z,34.66
2022-08-03T11:28:34.921Z,34.77
2022-08-03T11:31:46.870Z,34.66
2022-08-03T11:34:10.498Z,34.29
2022-08-03T11:36:58.851Z,34.40
2022-08-03T11:39:38.298Z,34.29
2022-08-03T11:42:33.873Z,33.92
2022-08-03T11:45:00.861Z,33.24
2022-08-03T11:47:28.394Z,33.12
2022-08-03T11:49:55.788Z,32.62
2022-08-03T11:52:26.959Z,32.15
2022-08-03T11:54:56.632Z,32.60
2022-08-03T11:59:17.464Z,33.24
2022-08-03T12:00:22.284Z,34.29
2022-08-03T12:03:08.403Z,35.07
2022-08-03T12:05:51.315Z,35.14
2022-08-03T12:08:27.868Z,33.78
2022-08-03T12:10:55.221Z,33.94
2022-08-03T12:14:10.661Z,34.69
2022-08-03T12:16:09.118Z,34.04
2022-08-03T12:18:36.208Z,33.93
2022-08-03T12:21:07.091Z,34.30
2022-08-03T12:23:37.629Z,34.66
2022-08-03T12:26:08.904Z,34.57
2022-08-03T12:28:36.950Z,34.10
2022-08-03T12:31:09.104Z,33.79
2022-08-03T12:33:54.077Z,34.22
2022-08-03T12:36:20.464Z,34.73
2022-08-03T12:38:53.928Z,34.76
2022-08-03T12:41:27.062Z,34.81
2022-08-03T12:43:55.018Z,34.79
2022-08-03T12:46:21.388Z,35.09
2022-08-03T12:49:01.178Z,35.85
2022-08-03T12:51:32.239Z,36.17
2022-08-03T12:53:59.546Z,36.32
2022-08-03T12:56:26.173Z,35.80
2022-08-03T12:58:53.072Z,35.25
2022-08-03T13:01:22.416Z,35.47
2022-08-03T13:03:52.930Z,35.32
2022-08-03T13:06:24.172Z,35.24
2022-08-03T13:08:51.579Z,35.62
2022-08-03T13:11:50.539Z,35.42
2022-08-03T13:14:16.900Z,34.90
2022-08-03T13:16:46.194Z,34.26
2022-08-03T13:19:15.458Z,33.72
2022-08-03T13:21:53.887Z,33.26
2022-08-03T13:24:29.320Z,33.31
2022-08-03T13:26:56.937Z,33.65
2022-08-03T13:29:23.256Z,33.85
2022-08-03T13:31:50.911Z,33.98
2022-08-03T13:34:22.254Z,34.73
2022-08-03T13:39:48.215Z,34.96
2022-08-03T13:42:22.846Z,35.31
2022-08-03T13:44:49.177Z,35.75
2022-08-03T13:47:15.498Z,36.22
2022-08-03T13:49:42.055Z,36.76
2022-08-03T13:52:20.978Z,37.20
2022-08-03T13:54:47.499Z,36.47
2022-08-03T13:58:03.561Z,35.39
2022-08-03T14:00:00.307Z,35.25
2022-08-03T14:02:26.703Z,35.26
2022-08-03T14:04:54.612Z,35.05
2022-08-03T14:07:21.290Z,34.24
2022-08-03T14:09:47.765Z,33.45
2022-08-03T14:12:14.161Z,32.67
2022-08-03T14:14:40.846Z,32.09
2022-08-03T14:17:07.226Z,32.10
2022-08-03T14:19:34.215Z,32.49
2022-08-03T14:22:19.212Z,33.23
2022-08-03T14:24:45.557Z,33.67
2022-08-03T14:27:12.025Z,34.75
2022-08-03T14:29:38.370Z,35.24
2022-08-03T14:32:09.617Z,34.62
2022-08-03T14:34:38.569Z,33.82
2022-08-03T14:37:04.972Z,33.23
2022-08-03T14:39:58.203Z,32.90
2022-08-03T14:42:17.721Z,32.74
2022-08-03T14:44:44.102Z,33.34
2022-08-03T14:47:10.525Z,33.86
2022-08-03T14:50:37.281Z,34.37
2022-08-03T14:52:23.180Z,34.58
2022-08-03T14:54:49.520Z,33.94
2022-08-03T14:57:15.852Z,33.26
2022-08-03T14:59:56.081Z,33.23
2022-08-03T15:02:24.320Z,33.01
2022-08-03T15:04:50.867Z,32.34
2022-08-03T15:07:17.298Z,32.02
2022-08-03T15:09:43.643Z,31.71
2022-08-03T15:12:09.982Z,31.56
2022-08-03T15:14:37.822Z,31.49
2022-08-03T15:17:04.743Z,31.47
2022-08-03T15:20:03.860Z,31.42
2022-08-03T15:22:20.627Z,31.50
2022-08-03T15:24:51.595Z,31.41
2022-08-03T15:27:18.009Z,31.30
2022-08-03T15:30:07.562Z,31.13
2022-08-03T15:32:30.799Z,31.14
2022-08-03T15:34:57.113Z,31.13
2022-08-03T15:37:25.601Z,30.95
2022-08-03T15:39:59.968Z,30.85
2022-08-03T15:42:27.293Z,30.72
2022-08-03T15:44:53.942Z,30.63
2022-08-03T15:47:21.406Z,30.58
2022-08-03T15:49:47.852Z,30.41
2022-08-03T15:52:15.122Z,30.34
2022-08-03T15:54:41.496Z,30.32
2022-08-03T15:57:07.835Z,30.32
2022-08-03T15:59:34.299Z,30.19
2022-08-03T16:02:00.685Z,30.38
2022-08-03T16:04:27.103Z,30.38
2022-08-03T16:06:53.422Z,30.28
2022-08-03T16:09:22.915Z,30.12
2022-08-03T16:12:06.167Z,29.97
2022-08-03T16:14:51.728Z,29.99
2022-08-03T16:17:19.855Z,30.05
2022-08-03T16:19:46.381Z,30.03
2022-08-03T16:22:12.821Z,29.93
2022-08-03T16:24:40.792Z,29.94
2022-08-03T16:27:12.859Z,29.95
2022-08-03T16:29:44.460Z,30.09
2022-08-03T16:32:10.947Z,30.02
2022-08-03T16:34:38.068Z,29.98
2022-08-03T16:37:22.149Z,30.05
2022-08-03T16:39:51.196Z,30.03
2022-08-03T16:42:17.496Z,29.92
2022-08-03T16:44:43.940Z,29.81
2022-08-03T16:47:10.257Z,29.65
2022-08-03T16:49:55.126Z,29.61
2022-08-03T16:52:22.855Z,29.51
2022-08-03T16:54:53.078Z,29.47
2022-08-03T16:57:55.670Z,29.46
2022-08-03T17:00:11.713Z,29.47
2022-08-03T17:02:40.816Z,29.58
2022-08-03T17:05:14.570Z,29.68
2022-08-03T17:07:41.130Z,29.78
2022-08-03T17:10:07.836Z,29.81
2022-08-03T17:12:35.084Z,29.77
2022-08-03T17:15:01.584Z,29.77
2022-08-03T17:17:30.107Z,29.73
2022-08-03T17:20:09.780Z,29.67
2022-08-03T17:22:39.181Z,29.67
2022-08-03T17:25:09.531Z,29.69
2022-08-03T17:28:49.702Z,29.67
2022-08-03T17:30:56.358Z,29.49
2022-08-03T17:33:26.928Z,29.28
2022-08-03T17:36:02.036Z,29.02
2022-08-03T17:38:28.957Z,28.76
2022-08-03T17:41:01.327Z,28.58
2022-08-03T17:44:13.534Z,28.43
2022-08-03T17:46:26.596Z,28.26
2022-08-03T17:48:54.069Z,28.12
2022-08-03T17:51:46.162Z,27.96
2022-08-03T17:54:19.888Z,27.69
2022-08-03T17:56:51.521Z,27.47
2022-08-03T17:59:51.829Z,27.40
2022-08-03T18:02:33.841Z,27.33
2022-08-03T18:05:16.450Z,27.29
2022-08-03T18:08:01.679Z,27.19
2022-08-03T18:10:33.598Z,27.16
2022-08-03T18:13:10.420Z,27.09
2022-08-03T18:15:47.010Z,27.02
2022-08-03T18:18:15.816Z,26.87
2022-08-03T18:20:45.498Z,26.72
2022-08-03T18:23:24.957Z,26.62
2022-08-03T18:26:00.273Z,26.56
2022-08-03T18:28:27.334Z,26.47
2022-08-03T18:30:56.951Z,26.42
2022-08-03T18:36:17.468Z,26.20
2022-08-03T18:38:46.442Z,26.10
2022-08-03T18:41:17.558Z,26.02
2022-08-03T18:44:06.749Z,25.97
2022-08-03T18:46:33.863Z,25.85
2022-08-03T18:49:11.446Z,25.72
2022-08-03T18:51:43.249Z,25.61
2022-08-03T18:54:51.791Z,25.52
2022-08-03T18:57:08.169Z,25.39
2022-08-03T18:59:40.955Z,25.27
2022-08-03T19:02:20.570Z,25.12
2022-08-03T19:04:48.132Z,24.94
2022-08-03T19:07:23.759Z,24.82
2022-08-03T19:10:19.051Z,24.69
2022-08-03T19:12:54.334Z,24.57
2022-08-03T19:15:36.359Z,24.48
2022-08-03T19:18:08.847Z,24.36
2022-08-03T19:20:37.514Z,24.23
2022-08-03T19:23:04.085Z,24.09
2022-08-03T19:25:37.621Z,23.95
2022-08-03T19:28:06.341Z,23.85
2022-08-03T19:30:39.534Z,23.83
2022-08-03T19:33:07.580Z,23.81
2022-08-03T19:35:49.749Z,23.73
2022-08-03T19:38:27.543Z,23.64
2022-08-03T19:40:57.235Z,23.47
2022-08-03T19:43:32.968Z,23.38
2022-08-03T19:46:14.142Z,23.30
2022-08-03T19:48:42.663Z,23.15
2022-08-03T19:51:12.293Z,23.01
2022-08-03T19:53:43.159Z,22.91
2022-08-03T19:56:12.652Z,22.83
2022-08-03T19:58:39.181Z,22.76
2022-08-03T20:01:19.194Z,22.69
2022-08-03T20:03:48.050Z,22.58
2022-08-03T20:06:20.300Z,22.49
2022-08-03T20:08:48.150Z,22.39
2022-08-03T20:11:18.029Z,22.35
2022-08-03T20:13:46.049Z,22.33
2022-08-03T20:16:14.731Z,22.27
2022-08-03T20:18:42.424Z,22.23
2022-08-03T20:21:15.293Z,22.21
2022-08-03T20:24:01.739Z,22.17
2022-08-03T20:26:30.236Z,22.11
2022-08-03T20:29:00.759Z,22.05
2022-08-03T20:31:36.403Z,21.96
2022-08-03T20:34:03.584Z,21.84
2022-08-03T20:36:30.219Z,21.80
2022-08-03T20:38:58.037Z,21.76
2022-08-03T20:41:24.493Z,21.71
2022-08-03T20:43:51.067Z,21.67
2022-08-03T20:46:31.310Z,21.62
2022-08-03T20:49:03.797Z,21.52
2022-08-03T20:51:49.025Z,21.48
2022-08-03T20:54:22.900Z,21.36
2022-08-03T20:56:57.025Z,21.38
2022-08-03T20:59:23.664Z,21.44
2022-08-03T21:01:50.675Z,21.42
2022-08-03T21:04:21.015Z,21.34
2022-08-03T21:06:57.560Z,21.32
2022-08-03T21:09:33.214Z,21.32
2022-08-03T21:12:03.019Z,21.25
2022-08-03T21:13:05.029Z,26.31
2022-08-03T21:14:43.256Z,21.13
2022-08-03T21:17:25.068Z,21.09
2022-08-03T21:19:57.669Z,20.98
2022-08-03T21:22:25.805Z,20.95
2022-08-03T21:24:57.237Z,20.96
2022-08-03T21:27:24.818Z,20.90
2022-08-03T21:29:53.249Z,20.85
2022-08-03T21:32:33.033Z,20.79
2022-08-03T21:35:00.421Z,20.73
2022-08-03T21:37:27.088Z,20.64
2022-08-03T21:39:54.524Z,20.61
2022-08-03T21:42:24.300Z,20.60
2022-08-03T21:44:53.723Z,20.58
2022-08-03T21:47:24.304Z,20.53
2022-08-03T21:50:06.579Z,20.44
2022-08-03T21:52:36.299Z,20.37
2022-08-03T21:55:06.032Z,20.33
2022-08-03T21:57:33.633Z,20.24
2022-08-03T22:00:07.526Z,20.19
2022-08-03T22:02:34.572Z,20.15
2022-08-03T22:05:05.019Z,20.11
2022-08-03T22:07:32.663Z,20.05
2022-08-03T22:10:00.902Z,19.95
2022-08-03T22:12:28.373Z,19.90
2022-08-03T22:15:00.182Z,19.86
2022-08-03T22:17:55.418Z,19.86
2022-08-03T22:20:14.872Z,19.87
2022-08-03T22:22:43.569Z,19.86
2022-08-03T22:25:23.938Z,19.80
2022-08-03T22:27:52.445Z,19.74
2022-08-03T22:30:19.014Z,19.71
2022-08-03T22:32:45.951Z,19.65
2022-08-03T22:35:14.146Z,19.58
2022-08-03T22:37:41.244Z,19.57
2022-08-03T22:40:09.151Z,19.57
2022-08-03T22:42:35.807Z,19.55
2022-08-03T22:45:04.543Z,19.48
2022-08-03T22:47:32.147Z,19.43
2022-08-03T22:50:32.843Z,19.42
2022-08-03T22:52:45.454Z,19.35
2022-08-03T22:55:24.714Z,19.29
2022-08-03T22:57:55.879Z,19.30
2022-08-03T23:00:22.572Z,19.31
2022-08-03T23:02:49.678Z,19.35
2022-08-03T23:06:01.154Z,19.33
2022-08-03T23:08:04.314Z,19.27
2022-08-03T23:10:33.391Z,19.25
2022-08-03T23:13:00.931Z,19.21
2022-08-03T23:15:29.426Z,19.20
2022-08-03T23:17:58.611Z,19.20
2022-08-03T23:20:26.586Z,19.19
2022-08-03T23:22:53.964Z,19.17
2022-08-03T23:25:21.858Z,19.22
2022-08-03T23:27:49.284Z,19.24
2022-08-03T23:30:32.790Z,19.21
2022-08-03T23:33:01.094Z,19.15
2022-08-03T23:36:28.529Z,19.09
2022-08-03T23:38:46.844Z,19.02
2022-08-03T23:41:13.421Z,18.98
2022-08-03T23:43:52.192Z,18.94
2022-08-03T23:46:21.285Z,18.86
2022-08-03T23:48:47.652Z,18.85
2022-08-03T23:51:19.585Z,18.78
2022-08-03T23:53:52.870Z,18.79
2022-08-03T23:56:37.608Z,18.77
2022-08-03T23:59:08.775Z,18.71
